sensor_id;sensor_type;location;lat;lon;timestamp;temperature;humidity
19799;DHT22;10059;59.850;10.454;2023-02-02T00:00:59;-3.70;99.90
19799;DHT22;10059;59.850;10.454;2023-02-02T00:03:26;-3.90;99.90
19799;DHT22;10059;59.850;10.454;2023-02-02T00:05:53;-3.90;99.90
19799;DHT22;10059;59.850;10.454;2023-02-02T00:08:20;-4.10;99.90
19799;DHT22;10059;59.850;10.454;2023-02-02T00:10:49;-4.10;99.90
19799;DHT22;10059;59.850;10.454;2023-02-02T00:13:16;-4.10;99.90
19799;DHT22;10059;59.850;10.454;2023-02-02T00:15:43;-4.00;99.90
19799;DHT22;10059;59.850;10.454;2023-02-02T00:18:10;-4.10;99.90
19799;DHT22;10059;59.850;10.454;2023-02-02T00:20:36;-3.90;99.90
19799;DHT22;10059;59.850;10.454;2023-02-02T00:23:03;-4.00;99.90
19799;DHT22;10059;59.850;10.454;2023-02-02T00:25:31;-3.90;99.90
19799;DHT22;10059;59.850;10.454;2023-02-02T00:27:59;-4.10;99.90
19799;DHT22;10059;59.850;10.454;2023-02-02T00:30:26;-4.00;99.90
19799;DHT22;10059;59.850;10.454;2023-02-02T00:32:53;-3.70;99.90
19799;DHT22;10059;59.850;10.454;2023-02-02T00:35:20;-3.80;99.90
19799;DHT22;10059;59.850;10.454;2023-02-02T00:37:47;-3.90;99.90
19799;DHT22;10059;59.850;10.454;2023-02-02T00:40:13;-3.80;99.90
19799;DHT22;10059;59.850;10.454;2023-02-02T00:42:40;-3.70;99.90
19799;DHT22;10059;59.850;10.454;2023-02-02T00:45:12;-3.60;99.90
19799;DHT22;10059;59.850;10.454;2023-02-02T00:47:41;-3.50;99.90
19799;DHT22;10059;59.850;10.454;2023-02-02T00:50:09;-3.40;99.90
19799;DHT22;10059;59.850;10.454;2023-02-02T00:52:36;-3.30;99.90
19799;DHT22;10059;59.850;10.454;2023-02-02T00:55:04;-3.30;99.90
19799;DHT22;10059;59.850;10.454;2023-02-02T00:57:31;-3.40;99.90
19799;DHT22;10059;59.850;10.454;2023-02-02T00:59:58;-3.60;99.90
19799;DHT22;10059;59.850;10.454;2023-02-02T01:02:26;-3.50;99.90
19799;DHT22;10059;59.850;10.454;2023-02-02T01:04:53;-3.70;99.90
19799;DHT22;10059;59.850;10.454;2023-02-02T01:07:20;-4.00;99.90
19799;DHT22;10059;59.850;10.454;2023-02-02T01:09:46;-4.00;99.90
19799;DHT22;10059;59.850;10.454;2023-02-02T01:12:13;-4.10;99.90
19799;DHT22;10059;59.850;10.454;2023-02-02T01:14:40;-4.00;99.90
19799;DHT22;10059;59.850;10.454;2023-02-02T01:17:07;-4.10;99.90
19799;DHT22;10059;59.850;10.454;2023-02-02T01:19:35;-4.00;99.90
19799;DHT22;10059;59.850;10.454;2023-02-02T01:22:02;-4.20;99.90
19799;DHT22;10059;59.850;10.454;2023-02-02T01:24:29;-4.30;99.90
19799;DHT22;10059;59.850;10.454;2023-02-02T01:26:56;-4.40;99.90
19799;DHT22;10059;59.850;10.454;2023-02-02T01:29:23;-4.40;99.90
19799;DHT22;10059;59.850;10.454;2023-02-02T01:31:50;-4.50;99.90
19799;DHT22;10059;59.850;10.454;2023-02-02T01:34:17;-4.50;99.90
19799;DHT22;10059;59.850;10.454;2023-02-02T01:36:45;-4.60;99.90
19799;DHT22;10059;59.850;10.454;2023-02-02T01:39:12;-4.50;99.90
19799;DHT22;10059;59.850;10.454;2023-02-02T01:41:40;-4.40;99.90
19799;DHT22;10059;59.850;10.454;2023-02-02T01:47:07;-4.00;99.90
19799;DHT22;10059;59.850;10.454;2023-02-02T01:49:34;-3.90;99.90
19799;DHT22;10059;59.850;10.454;2023-02-02T01:52:04;-3.90;99.90
19799;DHT22;10059;59.850;10.454;2023-02-02T01:54:34;-3.90;99.90
19799;DHT22;10059;59.850;10.454;2023-02-02T01:57:05;-3.80;99.90
19799;DHT22;10059;59.850;10.454;2023-02-02T01:59:34;-3.90;99.90
19799;DHT22;10059;59.850;10.454;2023-02-02T02:02:01;-3.90;99.90
19799;DHT22;10059;59.850;10.454;2023-02-02T02:04:30;-4.00;99.90
19799;DHT22;10059;59.850;10.454;2023-02-02T02:06:58;-4.00;99.90
19799;DHT22;10059;59.850;10.454;2023-02-02T02:09:27;-4.10;99.90
19799;DHT22;10059;59.850;10.454;2023-02-02T02:11:54;-4.00;99.90
19799;DHT22;10059;59.850;10.454;2023-02-02T02:14:21;-3.90;99.90
19799;DHT22;10059;59.850;10.454;2023-02-02T02:17:18;-3.70;99.90
19799;DHT22;10059;59.850;10.454;2023-02-02T02:23:43;-3.60;99.90
19799;DHT22;10059;59.850;10.454;2023-02-02T02:26:50;-3.80;99.90
19799;DHT22;10059;59.850;10.454;2023-02-02T02:29:58;-3.70;99.90
19799;DHT22;10059;59.850;10.454;2023-02-02T02:32:37;-3.60;99.90
19799;DHT22;10059;59.850;10.454;2023-02-02T02:35:12;-3.80;99.90
19799;DHT22;10059;59.850;10.454;2023-02-02T02:37:47;-3.80;99.90
19799;DHT22;10059;59.850;10.454;2023-02-02T02:40:21;-3.70;99.90
19799;DHT22;10059;59.850;10.454;2023-02-02T02:42:53;-3.90;99.90
19799;DHT22;10059;59.850;10.454;2023-02-02T02:45:22;-4.20;99.90
19799;DHT22;10059;59.850;10.454;2023-02-02T02:47:51;-4.30;99.90
19799;DHT22;10059;59.850;10.454;2023-02-02T02:50:19;-4.20;99.90
19799;DHT22;10059;59.850;10.454;2023-02-02T02:52:47;-4.30;99.90
19799;DHT22;10059;59.850;10.454;2023-02-02T02:55:15;-4.20;99.90
19799;DHT22;10059;59.850;10.454;2023-02-02T02:58:06;-4.10;99.90
19799;DHT22;10059;59.850;10.454;2023-02-02T03:00:45;-3.80;99.90
19799;DHT22;10059;59.850;10.454;2023-02-02T03:03:20;-3.70;99.90
19799;DHT22;10059;59.850;10.454;2023-02-02T03:05:54;-3.50;99.90
19799;DHT22;10059;59.850;10.454;2023-02-02T03:08:26;-3.40;99.90
19799;DHT22;10059;59.850;10.454;2023-02-02T03:10:56;-3.30;99.90
19799;DHT22;10059;59.850;10.454;2023-02-02T03:13:24;-3.20;99.90
19799;DHT22;10059;59.850;10.454;2023-02-02T03:15:52;-3.20;99.90
19799;DHT22;10059;59.850;10.454;2023-02-02T03:18:22;-3.10;99.90
19799;DHT22;10059;59.850;10.454;2023-02-02T03:20:50;-3.20;99.90
19799;DHT22;10059;59.850;10.454;2023-02-02T03:23:17;-3.20;99.90
19799;DHT22;10059;59.850;10.454;2023-02-02T03:25:44;-3.10;99.90
19799;DHT22;10059;59.850;10.454;2023-02-02T03:28:11;-3.10;99.90
19799;DHT22;10059;59.850;10.454;2023-02-02T03:30:39;-3.20;99.90
19799;DHT22;10059;59.850;10.454;2023-02-02T03:33:07;-3.10;99.90
19799;DHT22;10059;59.850;10.454;2023-02-02T03:35:36;-3.10;99.90
19799;DHT22;10059;59.850;10.454;2023-02-02T03:38:03;-3.20;99.90
19799;DHT22;10059;59.850;10.454;2023-02-02T03:40:30;-3.40;99.90
19799;DHT22;10059;59.850;10.454;2023-02-02T03:42:56;-3.60;99.90
19799;DHT22;10059;59.850;10.454;2023-02-02T03:45:26;-3.60;99.90
19799;DHT22;10059;59.850;10.454;2023-02-02T03:47:53;-3.80;99.90
19799;DHT22;10059;59.850;10.454;2023-02-02T03:50:20;-3.80;99.90
19799;DHT22;10059;59.850;10.454;2023-02-02T03:52:48;-3.60;99.90
19799;DHT22;10059;59.850;10.454;2023-02-02T03:55:15;-3.70;99.90
19799;DHT22;10059;59.850;10.454;2023-02-02T03:57:42;-3.80;99.90
19799;DHT22;10059;59.850;10.454;2023-02-02T04:00:10;-3.90;99.90
19799;DHT22;10059;59.850;10.454;2023-02-02T04:02:37;-4.00;99.90
19799;DHT22;10059;59.850;10.454;2023-02-02T04:05:04;-3.90;99.90
19799;DHT22;10059;59.850;10.454;2023-02-02T04:07:31;-4.10;99.90
19799;DHT22;10059;59.850;10.454;2023-02-02T04:09:59;-4.30;99.90
19799;DHT22;10059;59.850;10.454;2023-02-02T04:12:26;-4.40;99.90
19799;DHT22;10059;59.850;10.454;2023-02-02T04:14:53;-4.30;99.90
19799;DHT22;10059;59.850;10.454;2023-02-02T04:17:20;-4.30;99.90
19799;DHT22;10059;59.850;10.454;2023-02-02T04:19:46;-4.30;99.90
19799;DHT22;10059;59.850;10.454;2023-02-02T04:22:13;-4.20;99.90
19799;DHT22;10059;59.850;10.454;2023-02-02T04:24:40;-4.10;99.90
19799;DHT22;10059;59.850;10.454;2023-02-02T04:27:08;-4.10;99.90
19799;DHT22;10059;59.850;10.454;2023-02-02T04:29:35;-4.00;99.90
19799;DHT22;10059;59.850;10.454;2023-02-02T04:32:02;-4.00;99.90
19799;DHT22;10059;59.850;10.454;2023-02-02T04:34:29;-4.00;99.90
19799;DHT22;10059;59.850;10.454;2023-02-02T04:36:56;-4.20;99.90
19799;DHT22;10059;59.850;10.454;2023-02-02T04:39:23;-4.20;99.90
19799;DHT22;10059;59.850;10.454;2023-02-02T04:41:50;-4.10;99.90
19799;DHT22;10059;59.850;10.454;2023-02-02T04:44:18;-4.20;99.90
19799;DHT22;10059;59.850;10.454;2023-02-02T04:46:45;-4.20;99.90
19799;DHT22;10059;59.850;10.454;2023-02-02T04:49:12;-4.40;99.90
19799;DHT22;10059;59.850;10.454;2023-02-02T04:51:39;-4.50;99.90
19799;DHT22;10059;59.850;10.454;2023-02-02T04:54:06;-4.40;99.90
19799;DHT22;10059;59.850;10.454;2023-02-02T04:56:34;-4.40;99.90
19799;DHT22;10059;59.850;10.454;2023-02-02T04:59:01;-4.30;99.90
19799;DHT22;10059;59.850;10.454;2023-02-02T05:01:29;-4.20;99.90
19799;DHT22;10059;59.850;10.454;2023-02-02T05:03:56;-4.20;99.90
19799;DHT22;10059;59.850;10.454;2023-02-02T05:06:23;-4.30;99.90
19799;DHT22;10059;59.850;10.454;2023-02-02T05:08:50;-4.30;99.90
19799;DHT22;10059;59.850;10.454;2023-02-02T05:11:18;-4.20;99.90
19799;DHT22;10059;59.850;10.454;2023-02-02T05:13:46;-4.30;99.90
19799;DHT22;10059;59.850;10.454;2023-02-02T05:16:13;-4.40;99.90
19799;DHT22;10059;59.850;10.454;2023-02-02T05:18:41;-4.50;99.90
19799;DHT22;10059;59.850;10.454;2023-02-02T05:21:09;-4.50;99.90
19799;DHT22;10059;59.850;10.454;2023-02-02T05:23:36;-4.50;99.90
19799;DHT22;10059;59.850;10.454;2023-02-02T05:26:03;-4.30;99.90
19799;DHT22;10059;59.850;10.454;2023-02-02T05:28:29;-4.40;99.90
19799;DHT22;10059;59.850;10.454;2023-02-02T05:31:03;-4.30;99.90
19799;DHT22;10059;59.850;10.454;2023-02-02T05:33:30;-4.30;99.90
19799;DHT22;10059;59.850;10.454;2023-02-02T05:35:59;-4.60;99.90
19799;DHT22;10059;59.850;10.454;2023-02-02T05:38:26;-4.60;99.90
19799;DHT22;10059;59.850;10.454;2023-02-02T05:40:52;-4.50;99.90
19799;DHT22;10059;59.850;10.454;2023-02-02T05:43:19;-4.30;99.90
19799;DHT22;10059;59.850;10.454;2023-02-02T05:45:46;-4.30;99.90
19799;DHT22;10059;59.850;10.454;2023-02-02T05:48:13;-4.30;99.90
19799;DHT22;10059;59.850;10.454;2023-02-02T05:50:40;-4.20;99.90
19799;DHT22;10059;59.850;10.454;2023-02-02T05:53:11;-4.30;99.90
19799;DHT22;10059;59.850;10.454;2023-02-02T05:55:38;-4.20;99.90
19799;DHT22;10059;59.850;10.454;2023-02-02T05:58:05;-4.10;99.90
19799;DHT22;10059;59.850;10.454;2023-02-02T06:00:32;-4.10;99.90
19799;DHT22;10059;59.850;10.454;2023-02-02T06:02:59;-4.20;99.90
19799;DHT22;10059;59.850;10.454;2023-02-02T06:05:26;-4.20;99.90
19799;DHT22;10059;59.850;10.454;2023-02-02T06:07:53;-4.30;99.90
19799;DHT22;10059;59.850;10.454;2023-02-02T06:10:21;-4.30;99.90
19799;DHT22;10059;59.850;10.454;2023-02-02T06:12:48;-4.30;99.90
19799;DHT22;10059;59.850;10.454;2023-02-02T06:15:15;-4.30;99.90
19799;DHT22;10059;59.850;10.454;2023-02-02T06:17:42;-4.30;99.90
19799;DHT22;10059;59.850;10.454;2023-02-02T06:20:09;-4.20;99.90
19799;DHT22;10059;59.850;10.454;2023-02-02T06:22:36;-4.40;99.90
19799;DHT22;10059;59.850;10.454;2023-02-02T06:25:03;-4.40;99.90
19799;DHT22;10059;59.850;10.454;2023-02-02T06:27:33;-4.70;99.90
19799;DHT22;10059;59.850;10.454;2023-02-02T06:30:00;-4.70;99.90
19799;DHT22;10059;59.850;10.454;2023-02-02T06:32:28;-4.70;99.90
19799;DHT22;10059;59.850;10.454;2023-02-02T06:34:55;-4.40;99.90
19799;DHT22;10059;59.850;10.454;2023-02-02T06:37:22;-4.40;99.90
19799;DHT22;10059;59.850;10.454;2023-02-02T06:39:49;-4.50;99.90
19799;DHT22;10059;59.850;10.454;2023-02-02T06:42:15;-4.70;99.90
19799;DHT22;10059;59.850;10.454;2023-02-02T06:44:43;-4.80;99.90
19799;DHT22;10059;59.850;10.454;2023-02-02T06:47:10;-4.80;99.90
19799;DHT22;10059;59.850;10.454;2023-02-02T06:49:37;-4.90;99.90
19799;DHT22;10059;59.850;10.454;2023-02-02T06:52:04;-5.00;99.90
19799;DHT22;10059;59.850;10.454;2023-02-02T06:54:31;-5.00;99.90
19799;DHT22;10059;59.850;10.454;2023-02-02T06:56:58;-5.10;99.90
19799;DHT22;10059;59.850;10.454;2023-02-02T06:59:24;-5.20;99.90
19799;DHT22;10059;59.850;10.454;2023-02-02T07:01:52;-5.20;99.90
19799;DHT22;10059;59.850;10.454;2023-02-02T07:04:19;-5.20;99.90
19799;DHT22;10059;59.850;10.454;2023-02-02T07:06:46;-5.30;99.90
19799;DHT22;10059;59.850;10.454;2023-02-02T07:09:13;-5.40;99.90
19799;DHT22;10059;59.850;10.454;2023-02-02T07:11:40;-5.30;99.90
19799;DHT22;10059;59.850;10.454;2023-02-02T07:14:07;-5.40;99.90
19799;DHT22;10059;59.850;10.454;2023-02-02T07:16:34;-5.40;99.90
19799;DHT22;10059;59.850;10.454;2023-02-02T07:19:02;-5.20;99.90
19799;DHT22;10059;59.850;10.454;2023-02-02T07:21:30;-5.10;99.90
19799;DHT22;10059;59.850;10.454;2023-02-02T07:24:00;-5.00;99.90
19799;DHT22;10059;59.850;10.454;2023-02-02T07:26:27;-5.00;99.90
19799;DHT22;10059;59.850;10.454;2023-02-02T07:28:54;-5.20;99.90
19799;DHT22;10059;59.850;10.454;2023-02-02T07:31:21;-5.20;99.90
19799;DHT22;10059;59.850;10.454;2023-02-02T07:33:49;-5.10;99.90
19799;DHT22;10059;59.850;10.454;2023-02-02T07:36:18;-5.00;99.90
19799;DHT22;10059;59.850;10.454;2023-02-02T07:38:47;-4.90;99.90
19799;DHT22;10059;59.850;10.454;2023-02-02T07:41:14;-5.00;99.90
19799;DHT22;10059;59.850;10.454;2023-02-02T07:43:41;-5.00;99.90
19799;DHT22;10059;59.850;10.454;2023-02-02T07:46:09;-5.10;99.90
19799;DHT22;10059;59.850;10.454;2023-02-02T07:48:38;-5.00;99.90
19799;DHT22;10059;59.850;10.454;2023-02-02T07:51:07;-5.10;99.90
19799;DHT22;10059;59.850;10.454;2023-02-02T07:53:35;-5.10;99.90
19799;DHT22;10059;59.850;10.454;2023-02-02T07:56:07;-5.20;99.90
19799;DHT22;10059;59.850;10.454;2023-02-02T07:58:33;-5.30;99.90
19799;DHT22;10059;59.850;10.454;2023-02-02T08:01:01;-5.40;99.90
19799;DHT22;10059;59.850;10.454;2023-02-02T08:03:28;-5.20;99.90
19799;DHT22;10059;59.850;10.454;2023-02-02T08:05:55;-5.00;99.90
19799;DHT22;10059;59.850;10.454;2023-02-02T08:08:22;-4.60;99.90
19799;DHT22;10059;59.850;10.454;2023-02-02T08:10:52;-4.40;99.90
19799;DHT22;10059;59.850;10.454;2023-02-02T08:13:19;-4.30;99.90
19799;DHT22;10059;59.850;10.454;2023-02-02T08:15:46;-4.30;99.90
19799;DHT22;10059;59.850;10.454;2023-02-02T08:18:13;-4.20;99.90
19799;DHT22;10059;59.850;10.454;2023-02-02T08:20:40;-4.00;99.90
19799;DHT22;10059;59.850;10.454;2023-02-02T08:23:07;-3.60;99.90
19799;DHT22;10059;59.850;10.454;2023-02-02T08:25:38;-3.00;99.90
19799;DHT22;10059;59.850;10.454;2023-02-02T08:28:06;-2.50;99.90
19799;DHT22;10059;59.850;10.454;2023-02-02T08:30:33;-2.30;99.90
19799;DHT22;10059;59.850;10.454;2023-02-02T08:33:00;-2.00;99.90
19799;DHT22;10059;59.850;10.454;2023-02-02T08:35:27;-1.40;99.90
19799;DHT22;10059;59.850;10.454;2023-02-02T08:37:54;-0.90;99.90
19799;DHT22;10059;59.850;10.454;2023-02-02T08:40:21;-0.10;99.90
19799;DHT22;10059;59.850;10.454;2023-02-02T08:42:52;-0.30;99.90
19799;DHT22;10059;59.850;10.454;2023-02-02T08:45:20;0.60;99.90
19799;DHT22;10059;59.850;10.454;2023-02-02T08:47:47;1.50;99.90
19799;DHT22;10059;59.850;10.454;2023-02-02T08:50:15;1.90;99.90
19799;DHT22;10059;59.850;10.454;2023-02-02T08:52:42;2.00;99.90
19799;DHT22;10059;59.850;10.454;2023-02-02T08:55:09;2.70;99.90
19799;DHT22;10059;59.850;10.454;2023-02-02T08:57:36;2.70;99.90
19799;DHT22;10059;59.850;10.454;2023-02-02T09:00:03;2.70;99.90
19799;DHT22;10059;59.850;10.454;2023-02-02T09:02:32;3.20;99.90
19799;DHT22;10059;59.850;10.454;2023-02-02T09:04:59;3.80;99.90
19799;DHT22;10059;59.850;10.454;2023-02-02T09:07:26;3.30;99.90
19799;DHT22;10059;59.850;10.454;2023-02-02T09:09:53;2.30;99.90
19799;DHT22;10059;59.850;10.454;2023-02-02T09:12:22;2.10;99.90
19799;DHT22;10059;59.850;10.454;2023-02-02T09:14:49;1.10;99.90
19799;DHT22;10059;59.850;10.454;2023-02-02T09:17:16;0.50;99.90
19799;DHT22;10059;59.850;10.454;2023-02-02T09:19:44;0.30;99.90
19799;DHT22;10059;59.850;10.454;2023-02-02T09:22:11;0.20;99.90
19799;DHT22;10059;59.850;10.454;2023-02-02T09:24:38;0.10;99.90
19799;DHT22;10059;59.850;10.454;2023-02-02T09:27:04;-0.10;99.90
19799;DHT22;10059;59.850;10.454;2023-02-02T09:29:31;-0.30;99.90
19799;DHT22;10059;59.850;10.454;2023-02-02T09:31:58;-0.20;99.90
19799;DHT22;10059;59.850;10.454;2023-02-02T09:34:25;0.20;99.90
19799;DHT22;10059;59.850;10.454;2023-02-02T09:36:53;0.10;99.90
19799;DHT22;10059;59.850;10.454;2023-02-02T09:39:21;0.30;99.90
19799;DHT22;10059;59.850;10.454;2023-02-02T09:41:59;0.40;99.90
19799;DHT22;10059;59.850;10.454;2023-02-02T09:44:41;0.40;99.90
19799;DHT22;10059;59.850;10.454;2023-02-02T09:47:16;0.10;99.90
19799;DHT22;10059;59.850;10.454;2023-02-02T09:49:52;0.00;99.90
19799;DHT22;10059;59.850;10.454;2023-02-02T09:52:24;-0.20;99.90
19799;DHT22;10059;59.850;10.454;2023-02-02T09:54:58;0.00;99.90
19799;DHT22;10059;59.850;10.454;2023-02-02T09:57:29;0.20;99.90
19799;DHT22;10059;59.850;10.454;2023-02-02T09:59:58;0.50;99.90
19799;DHT22;10059;59.850;10.454;2023-02-02T10:02:29;0.70;99.90
19799;DHT22;10059;59.850;10.454;2023-02-02T10:05:02;1.60;99.90
19799;DHT22;10059;59.850;10.454;2023-02-02T10:07:37;2.50;99.90
19799;DHT22;10059;59.850;10.454;2023-02-02T10:10:10;2.80;99.90
19799;DHT22;10059;59.850;10.454;2023-02-02T10:12:43;3.30;99.90
19799;DHT22;10059;59.850;10.454;2023-02-02T10:15:19;2.70;99.90
19799;DHT22;10059;59.850;10.454;2023-02-02T10:17:51;2.10;99.90
19799;DHT22;10059;59.850;10.454;2023-02-02T10:20:30;1.60;99.90
19799;DHT22;10059;59.850;10.454;2023-02-02T10:23:08;1.40;99.90
19799;DHT22;10059;59.850;10.454;2023-02-02T10:25:38;1.60;99.90
19799;DHT22;10059;59.850;10.454;2023-02-02T10:28:23;1.80;99.90
19799;DHT22;10059;59.850;10.454;2023-02-02T10:30:56;2.10;99.90
19799;DHT22;10059;59.850;10.454;2023-02-02T10:33:32;2.50;99.90
19799;DHT22;10059;59.850;10.454;2023-02-02T10:36:09;2.60;99.90
19799;DHT22;10059;59.850;10.454;2023-02-02T10:38:46;2.40;99.90
19799;DHT22;10059;59.850;10.454;2023-02-02T10:41:23;2.40;99.90
19799;DHT22;10059;59.850;10.454;2023-02-02T10:44:04;2.50;99.90
19799;DHT22;10059;59.850;10.454;2023-02-02T10:46:35;1.80;99.90
19799;DHT22;10059;59.850;10.454;2023-02-02T10:49:18;1.60;99.90
19799;DHT22;10059;59.850;10.454;2023-02-02T10:51:51;2.00;99.90
19799;DHT22;10059;59.850;10.454;2023-02-02T10:54:33;2.90;99.90
19799;DHT22;10059;59.850;10.454;2023-02-02T10:57:04;3.00;99.90
19799;DHT22;10059;59.850;10.454;2023-02-02T10:59:36;3.40;99.90
19799;DHT22;10059;59.850;10.454;2023-02-02T11:02:09;3.30;99.90
19799;DHT22;10059;59.850;10.454;2023-02-02T11:04:36;4.00;99.90
19799;DHT22;10059;59.850;10.454;2023-02-02T11:07:21;3.90;99.90
19799;DHT22;10059;59.850;10.454;2023-02-02T11:09:49;4.00;99.90
19799;DHT22;10059;59.850;10.454;2023-02-02T11:12:21;4.10;99.90
19799;DHT22;10059;59.850;10.454;2023-02-02T11:14:53;3.50;99.90
19799;DHT22;10059;59.850;10.454;2023-02-02T11:17:23;3.20;99.90
19799;DHT22;10059;59.850;10.454;2023-02-02T11:19:51;3.30;99.90
19799;DHT22;10059;59.850;10.454;2023-02-02T11:22:25;4.50;99.90
19799;DHT22;10059;59.850;10.454;2023-02-02T11:24:56;4.70;99.90
19799;DHT22;10059;59.850;10.454;2023-02-02T11:27:26;4.90;99.90
19799;DHT22;10059;59.850;10.454;2023-02-02T11:29:55;5.50;99.90
19799;DHT22;10059;59.850;10.454;2023-02-02T11:32:27;7.10;99.90
19799;DHT22;10059;59.850;10.454;2023-02-02T11:35:16;6.60;99.90
19799;DHT22;10059;59.850;10.454;2023-02-02T11:38:08;6.70;99.90
19799;DHT22;10059;59.850;10.454;2023-02-02T11:40:38;6.90;99.90
19799;DHT22;10059;59.850;10.454;2023-02-02T11:43:14;7.30;99.90
19799;DHT22;10059;59.850;10.454;2023-02-02T11:45:44;8.40;99.90
19799;DHT22;10059;59.850;10.454;2023-02-02T11:48:16;9.40;99.90
19799;DHT22;10059;59.850;10.454;2023-02-02T11:50:48;9.00;99.90
19799;DHT22;10059;59.850;10.454;2023-02-02T11:53:21;9.20;99.60
19799;DHT22;10059;59.850;10.454;2023-02-02T11:55:51;8.90;99.30
19799;DHT22;10059;59.850;10.454;2023-02-02T11:58:23;8.40;99.60
19799;DHT22;10059;59.850;10.454;2023-02-02T12:00:57;7.90;99.90
19799;DHT22;10059;59.850;10.454;2023-02-02T12:03:30;7.70;99.90
19799;DHT22;10059;59.850;10.454;2023-02-02T12:05:58;7.30;99.90
19799;DHT22;10059;59.850;10.454;2023-02-02T12:08:27;6.70;99.90
19799;DHT22;10059;59.850;10.454;2023-02-02T12:10:58;6.50;99.90
19799;DHT22;10059;59.850;10.454;2023-02-02T12:13:41;6.40;99.90
19799;DHT22;10059;59.850;10.454;2023-02-02T12:16:30;7.00;99.90
19799;DHT22;10059;59.850;10.454;2023-02-02T12:19:14;6.80;99.90
19799;DHT22;10059;59.850;10.454;2023-02-02T12:21:51;6.40;99.90
19799;DHT22;10059;59.850;10.454;2023-02-02T12:24:26;5.70;99.90
19799;DHT22;10059;59.850;10.454;2023-02-02T12:27:06;5.00;99.90
19799;DHT22;10059;59.850;10.454;2023-02-02T12:29:52;5.50;99.90
19799;DHT22;10059;59.850;10.454;2023-02-02T12:32:27;6.30;99.90
19799;DHT22;10059;59.850;10.454;2023-02-02T12:35:12;6.70;99.90
19799;DHT22;10059;59.850;10.454;2023-02-02T12:37:50;6.30;99.90
19799;DHT22;10059;59.850;10.454;2023-02-02T12:40:40;6.00;99.90
19799;DHT22;10059;59.850;10.454;2023-02-02T12:43:22;5.20;99.90
19799;DHT22;10059;59.850;10.454;2023-02-02T12:46:32;6.50;99.90
19799;DHT22;10059;59.850;10.454;2023-02-02T12:49:16;7.30;99.90
19799;DHT22;10059;59.850;10.454;2023-02-02T12:51:54;7.70;99.80
19799;DHT22;10059;59.850;10.454;2023-02-02T12:54:45;7.80;99.60
19799;DHT22;10059;59.850;10.454;2023-02-02T12:57:18;7.20;99.90
19799;DHT22;10059;59.850;10.454;2023-02-02T13:00:09;7.30;99.90
19799;DHT22;10059;59.850;10.454;2023-02-02T13:02:45;7.00;99.90
19799;DHT22;10059;59.850;10.454;2023-02-02T13:05:28;7.10;99.90
19799;DHT22;10059;59.850;10.454;2023-02-02T13:08:00;7.50;99.90
19799;DHT22;10059;59.850;10.454;2023-02-02T13:10:33;7.20;99.90
19799;DHT22;10059;59.850;10.454;2023-02-02T13:13:04;6.40;99.90
19799;DHT22;10059;59.850;10.454;2023-02-02T13:15:36;6.10;99.90
19799;DHT22;10059;59.850;10.454;2023-02-02T13:18:07;5.30;99.90
19799;DHT22;10059;59.850;10.454;2023-02-02T13:20:40;4.80;99.90
19799;DHT22;10059;59.850;10.454;2023-02-02T13:23:14;4.50;99.90
19799;DHT22;10059;59.850;10.454;2023-02-02T13:25:46;4.10;99.90
19799;DHT22;10059;59.850;10.454;2023-02-02T13:28:27;3.80;99.90
19799;DHT22;10059;59.850;10.454;2023-02-02T13:31:01;3.50;99.90
19799;DHT22;10059;59.850;10.454;2023-02-02T13:33:32;2.90;99.90
19799;DHT22;10059;59.850;10.454;2023-02-02T13:36:02;2.80;99.90
19799;DHT22;10059;59.850;10.454;2023-02-02T13:38:30;2.20;99.90
19799;DHT22;10059;59.850;10.454;2023-02-02T13:41:01;2.00;99.90
19799;DHT22;10059;59.850;10.454;2023-02-02T13:43:37;1.70;99.90
19799;DHT22;10059;59.850;10.454;2023-02-02T13:46:16;1.50;99.90
19799;DHT22;10059;59.850;10.454;2023-02-02T13:48:52;1.30;99.90
19799;DHT22;10059;59.850;10.454;2023-02-02T13:51:33;1.20;99.90
19799;DHT22;10059;59.850;10.454;2023-02-02T13:54:25;1.20;99.90
19799;DHT22;10059;59.850;10.454;2023-02-02T13:56:59;0.90;99.90
19799;DHT22;10059;59.850;10.454;2023-02-02T13:59:49;1.20;99.90
19799;DHT22;10059;59.850;10.454;2023-02-02T14:02:21;1.30;99.90
19799;DHT22;10059;59.850;10.454;2023-02-02T14:04:54;1.30;99.90
19799;DHT22;10059;59.850;10.454;2023-02-02T14:07:27;0.90;99.90
19799;DHT22;10059;59.850;10.454;2023-02-02T14:09:56;0.70;99.90
19799;DHT22;10059;59.850;10.454;2023-02-02T14:12:29;0.60;99.90
19799;DHT22;10059;59.850;10.454;2023-02-02T14:14:57;0.60;99.90
19799;DHT22;10059;59.850;10.454;2023-02-02T14:17:50;0.60;99.90
19799;DHT22;10059;59.850;10.454;2023-02-02T14:20:43;0.70;99.90
19799;DHT22;10059;59.850;10.454;2023-02-02T14:29:09;0.30;99.90
19799;DHT22;10059;59.850;10.454;2023-02-02T14:31:57;0.10;99.90
19799;DHT22;10059;59.850;10.454;2023-02-02T14:34:31;0.10;99.90
19799;DHT22;10059;59.850;10.454;2023-02-02T14:40:37;0.00;99.90
19799;DHT22;10059;59.850;10.454;2023-02-02T14:43:15;0.00;99.90
19799;DHT22;10059;59.850;10.454;2023-02-02T14:46:22;-0.10;99.90
19799;DHT22;10059;59.850;10.454;2023-02-02T14:49:08;-0.50;99.90
19799;DHT22;10059;59.850;10.454;2023-02-02T14:51:50;-0.60;99.90
19799;DHT22;10059;59.850;10.454;2023-02-02T14:54:24;-0.70;99.90
19799;DHT22;10059;59.850;10.454;2023-02-02T14:56:56;-0.50;99.90
19799;DHT22;10059;59.850;10.454;2023-02-02T14:59:27;-0.30;99.90
19799;DHT22;10059;59.850;10.454;2023-02-02T15:02:02;-0.70;99.90
19799;DHT22;10059;59.850;10.454;2023-02-02T15:04:31;-0.90;99.90
19799;DHT22;10059;59.850;10.454;2023-02-02T15:09:56;-1.20;99.90
19799;DHT22;10059;59.850;10.454;2023-02-02T15:12:32;-1.00;99.90
19799;DHT22;10059;59.850;10.454;2023-02-02T15:15:16;-1.00;99.90
19799;DHT22;10059;59.850;10.454;2023-02-02T15:17:53;-1.40;99.90
19799;DHT22;10059;59.850;10.454;2023-02-02T15:20:27;-1.70;99.90
19799;DHT22;10059;59.850;10.454;2023-02-02T15:22:56;-1.90;99.90
19799;DHT22;10059;59.850;10.454;2023-02-02T15:25:32;-2.00;99.90
19799;DHT22;10059;59.850;10.454;2023-02-02T15:28:06;-2.20;99.90
19799;DHT22;10059;59.850;10.454;2023-02-02T15:30:34;-2.50;99.90
19799;DHT22;10059;59.850;10.454;2023-02-02T15:33:14;-2.80;99.90
19799;DHT22;10059;59.850;10.454;2023-02-02T15:35:42;-2.80;99.90
19799;DHT22;10059;59.850;10.454;2023-02-02T15:38:14;-2.70;99.90
19799;DHT22;10059;59.850;10.454;2023-02-02T15:40:45;-2.50;99.90
19799;DHT22;10059;59.850;10.454;2023-02-02T15:43:12;-2.40;99.90
19799;DHT22;10059;59.850;10.454;2023-02-02T15:45:43;-2.70;99.90
19799;DHT22;10059;59.850;10.454;2023-02-02T15:48:24;-2.70;99.90
19799;DHT22;10059;59.850;10.454;2023-02-02T15:50:55;-2.80;99.90
19799;DHT22;10059;59.850;10.454;2023-02-02T15:53:27;-2.80;99.90
19799;DHT22;10059;59.850;10.454;2023-02-02T15:55:58;-2.60;99.90
19799;DHT22;10059;59.850;10.454;2023-02-02T15:58:29;-2.50;99.90
19799;DHT22;10059;59.850;10.454;2023-02-02T16:01:00;-2.80;99.90
19799;DHT22;10059;59.850;10.454;2023-02-02T16:03:40;-2.90;99.90